Indianapolis, IN (46242)

9:08 AM EDT on July 29, 2015 (GMT -0400)
Thompson Medows | | Change Station
CLOSE
Current Station
Personal Weather Station
Location: Indianapolis, IN
Elevation: 745 ft
Nearby Weather Stations

Elev 745 ft 39.69 °N, 86.26 °W | Updated 7 minutes ago

Mostly Cloudy
Mostly Cloudy
80.8 °F
Feels Like 89 °F
N
2.7
Wind Variable Wind from NE

Today
High -- | Low -- °F
--% Chance of Precip.
Yesterday
High -- | Low -- °F
Precip. -- in
6:41 AM 9:01 PM
Waxing Gibbous, 95% visible
Pressure 29.96 in
Visibility 10.0 miles
Clouds Few 3000 ft
Mostly Cloudy 17000 ft
Mostly Cloudy 25000 ft
Heat Index 89 °F
Dew Point 79 °F
Humidity 95%
Rainfall 0.00 in
Snow Depth Not available.
UV 1 out of 12
Pollen 5.90 out of 12
Air Quality Not available.
Flu Activity Not available.
METAR KIND 291254Z 28004KT 10SM FEW030 BKN170 BKN250 27/22 A2998 RMK AO2 SLP145 TCU DSNT NW T02720222

More Conditions Fewer Conditions

Pressure 29.96 in
Visibility 10.0 miles
Clouds Few 3000 ft
Mostly Cloudy 17000 ft
Mostly Cloudy 25000 ft
Heat Index 89 °F
Dew Point 79 °F
Humidity 95%
Rainfall 0.00 in
Snow Depth Not available.
UV 1 out of 12
Pollen 5.90 out of 12
Air Quality Not available.
Flu Activity Not available.
METAR KIND 291254Z 28004KT 10SM FEW030 BKN170 BKN250 27/22 A2998 RMK AO2 SLP145 TCU DSNT NW T02720222

More Conditions Fewer Conditions

10-Day Weather Forecast

×

Almanac

Astronomy

Jul. 29, 2015 Rise Set
Actual Time
Civil Twilight
Nautical Twilight
Astronomical Twilight
Moon
Length of Visible Light
Length of Day
Tomorrow will be .
, % of the Moon is Illuminated

Today's Extremes

State Highs State Lows

Community

WunderPhotos

Upload Photos

1,842,089 photos uploaded!

WunderBlogs® & News

Nearby

Air Quality

  Air Quality AQ Index Pollutant
Not available.

Snow Depth

Station Depth Elevation

Earthquake Activity

City Distance Mag. Time & Date
Minimum magnitude displayed is 2.5.

Coastal Water Temperatures

Place Temperature

Stations

Nearby Weather Stations

Station Location Temp. Windchill Dew Point Humidity Wind Precip. Elev Updated Type